Nearby METAR Reports

 

LIBV - Gioia Del Colle, Italy
Distance from station: SSO 15km
Opdateer: 21/04/2018 22:55
Mist, Meestal bewolk
Mist, Meestal bewolk
 Wind van S
Wind: S 11 km/h
Temperatuur: 13°C
Doupunt: 13°C
Humiditeit: 100%
Druk: 1020 hPa
Obsomming: Mist
Clouds: Meestal bewolk
Visibility: 2 km
Cloud details: Meestal bewolk 91 m
2018/04/21 20:55 LIBV 212055Z 18006KT 2000 BR BKN003 13/13 Q1020 RMK BKN VIS MIN 2000 WIND THR32 18006KT WIND THR14 20007KT YLO
LIBD - Bari/Palese Macc, Italy
Distance from station: NNW 26km
Opdateer: 21/04/2018 22:50
Helder
Helder
 Wind van SW
Wind: SW 6 km/h
Temperatuur: 15°C
Doupunt: 12°C
Humiditeit: 82%
Druk: 1019 hPa
Obsomming: Helder
Visibility: greater than 10 km
2018/04/21 20:50 LIBD 212050Z 23003KT CAVOK 15/12 Q1019
LIBH - Marina Di Ginosa, Italy
Distance from station: S 53km
Opdateer: 21/04/2018 22:55
Helder
Helder
 Wind van ONO
Wind: ONO 4 km/h
Temperatuur: 15°C
Doupunt: 13°C
Humiditeit: 88%
Druk: 1019 hPa
Obsomming: Helder
Visibility: greater than 10 km
2018/04/21 20:55 LIBH 212055Z 06002KT CAVOK 15/13 Q1019 RMK FEW FEW080 QUK / QUL / VIS MAR 15 KM VIS MIN 9999
 
LIBG - Grottaglie(Civ/A, Italy
Distance from station: SO 61km
Opdateer: 21/04/2018 19:50
NOT Current
Helder
Helder
 Wind van WSW
Wind: WSW 7 km/h
Temperatuur: 18°C
Doupunt: 14°C
Humiditeit: 78%
Druk: 1018 hPa
Obsomming: Helder
Visibility: greater than 10 km
2018/04/21 17:50 LIBG 211750Z 24004KT 200V260 CAVOK 18/14 Q1018
LIBR - Brindisi/Casale, Italy
Distance from station: OSO 96km
Opdateer: 21/04/2018 22:50
Helder
Helder
 Wind van SSW
Wind: SSW 17 km/h
Temperatuur: 17°C
Doupunt: 15°C
Humiditeit: 88%
Druk: 1019 hPa
Obsomming: Helder
Visibility: greater than 10 km
2018/04/21 20:50 LIBR 212050Z 21009KT CAVOK 17/15 Q1019
LIBA - Amendola (it-Afb, Italy
Distance from station: NW 118km
Opdateer: 20/04/2018 19:55
NOT Current
Helder
Helder
 Wind van WNW
Wind: WNW 20 km/h
Temperatuur: 17°C
Doupunt: 11°C
Humiditeit: 68%
Druk: 1017 hPa
Obsomming: Helder
Visibility: greater than 10 km
2018/04/20 17:55 LIBA 201755Z 29011KT CAVOK 17/11 Q1017 RMK SKC VIS MIN 9999 WIND THR11 29009KT WIND THR29 /////KT BLU
 
LIBF - Foggia/Gino Lisa, Italy
Distance from station: WNW 126km
Opdateer: 21/04/2018 17:50
NOT Current
Helder
Helder
 Wind van ONO
Wind: ONO 15 km/h
Temperatuur: 22°C
Doupunt: 5°C
Humiditeit: 33%
Druk: 1019 hPa
Obsomming: Helder
Visibility: greater than 10 km
2018/04/21 15:50 LIBF 211550Z 06008KT CAVOK 22/05 Q1019
LIBN - Lecce (it-Afb), Italy
Distance from station: SO 132km
Opdateer: 21/04/2018 22:55
Helder
Helder
 Wind van SSW
Wind: SSW 4 km/h
Temperatuur: 13°C
Doupunt: 12°C
Humiditeit: 94%
Druk: 1020 hPa
Obsomming: Helder
Visibility: greater than 10 km
2018/04/21 20:55 LIBN 212055Z 21002KT CAVOK 13/12 Q1020 RMK SKC VIS MIN 9999 WIND THR14 22002KT WIND THR32 23002KT BLU